sensor_id;sensor_type;location;lat;lon;timestamp;temperature;humidity
64882;HTU21D;51375;44.836;38.672;2024-01-27T00:02:00;7.53;72.16
64882;HTU21D;51375;44.836;38.672;2024-01-27T00:04:26;7.50;72.09
64882;HTU21D;51375;44.836;38.672;2024-01-27T00:06:52;7.47;72.17
64882;HTU21D;51375;44.836;38.672;2024-01-27T00:09:18;7.46;72.11
64882;HTU21D;51375;44.836;38.672;2024-01-27T00:11:44;7.27;72.48
64882;HTU21D;51375;44.836;38.672;2024-01-27T00:14:10;7.20;72.96
64882;HTU21D;51375;44.836;38.672;2024-01-27T00:16:36;7.19;72.99
64882;HTU21D;51375;44.836;38.672;2024-01-27T00:19:02;7.20;72.86
64882;HTU21D;51375;44.836;38.672;2024-01-27T00:21:28;7.24;72.91
64882;HTU21D;51375;44.836;38.672;2024-01-27T00:23:54;7.27;72.77
64882;HTU21D;51375;44.836;38.672;2024-01-27T00:26:20;7.16;72.99
64882;HTU21D;51375;44.836;38.672;2024-01-27T00:28:46;7.08;73.07
64882;HTU21D;51375;44.836;38.672;2024-01-27T00:31:12;7.00;73.50
64882;HTU21D;51375;44.836;38.672;2024-01-27T00:33:38;6.99;73.58
64882;HTU21D;51375;44.836;38.672;2024-01-27T00:36:07;7.03;73.51
64882;HTU21D;51375;44.836;38.672;2024-01-27T00:38:33;7.09;73.45
64882;HTU21D;51375;44.836;38.672;2024-01-27T00:40:58;7.14;73.25
64882;HTU21D;51375;44.836;38.672;2024-01-27T00:43:24;7.16;73.07
64882;HTU21D;51375;44.836;38.672;2024-01-27T00:45:50;7.22;72.92
64882;HTU21D;51375;44.836;38.672;2024-01-27T00:48:16;7.19;72.82
64882;HTU21D;51375;44.836;38.672;2024-01-27T00:50:42;7.15;72.93
64882;HTU21D;51375;44.836;38.672;2024-01-27T00:53:08;7.17;72.96
64882;HTU21D;51375;44.836;38.672;2024-01-27T00:55:34;7.17;72.86
64882;HTU21D;51375;44.836;38.672;2024-01-27T00:58:00;7.19;72.84
64882;HTU21D;51375;44.836;38.672;2024-01-27T01:00:26;7.20;72.64
64882;HTU21D;51375;44.836;38.672;2024-01-27T01:02:51;7.20;72.55
64882;HTU21D;51375;44.836;38.672;2024-01-27T01:05:17;7.20;72.56
64882;HTU21D;51375;44.836;38.672;2024-01-27T01:07:43;7.23;72.50
64882;HTU21D;51375;44.836;38.672;2024-01-27T01:10:09;7.23;72.35
64882;HTU21D;51375;44.836;38.672;2024-01-27T01:12:35;7.09;72.56
64882;HTU21D;51375;44.836;38.672;2024-01-27T01:15:02;7.02;72.70
64882;HTU21D;51375;44.836;38.672;2024-01-27T01:17:28;7.01;72.87
64882;HTU21D;51375;44.836;38.672;2024-01-27T01:19:54;7.01;72.78
64882;HTU21D;51375;44.836;38.672;2024-01-27T01:22:19;6.90;72.98
64882;HTU21D;51375;44.836;38.672;2024-01-27T01:24:45;6.81;73.19
64882;HTU21D;51375;44.836;38.672;2024-01-27T01:27:11;6.72;73.49
64882;HTU21D;51375;44.836;38.672;2024-01-27T01:29:37;6.72;73.64
64882;HTU21D;51375;44.836;38.672;2024-01-27T01:32:03;6.79;73.57
64882;HTU21D;51375;44.836;38.672;2024-01-27T01:34:30;6.85;73.44
64882;HTU21D;51375;44.836;38.672;2024-01-27T01:36:57;6.89;73.35
64882;HTU21D;51375;44.836;38.672;2024-01-27T01:39:23;6.97;73.17
64882;HTU21D;51375;44.836;38.672;2024-01-27T01:41:49;7.01;72.92
64882;HTU21D;51375;44.836;38.672;2024-01-27T01:44:15;7.03;72.69
64882;HTU21D;51375;44.836;38.672;2024-01-27T01:46:41;7.04;72.52
64882;HTU21D;51375;44.836;38.672;2024-01-27T01:49:07;7.08;72.52
64882;HTU21D;51375;44.836;38.672;2024-01-27T01:51:33;7.10;72.49
64882;HTU21D;51375;44.836;38.672;2024-01-27T01:53:59;7.03;72.51
64882;HTU21D;51375;44.836;38.672;2024-01-27T01:56:25;6.96;72.72
64882;HTU21D;51375;44.836;38.672;2024-01-27T01:58:51;6.96;72.81
64882;HTU21D;51375;44.836;38.672;2024-01-27T02:01:19;6.97;72.71
64882;HTU21D;51375;44.836;38.672;2024-01-27T02:03:59;6.94;72.49
64882;HTU21D;51375;44.836;38.672;2024-01-27T02:06:24;6.93;72.41
64882;HTU21D;51375;44.836;38.672;2024-01-27T02:08:51;6.89;72.32
64882;HTU21D;51375;44.836;38.672;2024-01-27T02:11:17;6.83;72.25
64882;HTU21D;51375;44.836;38.672;2024-01-27T02:13:43;6.79;72.26
64882;HTU21D;51375;44.836;38.672;2024-01-27T02:16:09;6.75;72.22
64882;HTU21D;51375;44.836;38.672;2024-01-27T02:18:35;6.70;72.16
64882;HTU21D;51375;44.836;38.672;2024-01-27T02:21:01;6.68;72.14
64882;HTU21D;51375;44.836;38.672;2024-01-27T02:23:27;6.65;72.09
64882;HTU21D;51375;44.836;38.672;2024-01-27T02:25:53;6.55;72.31
64882;HTU21D;51375;44.836;38.672;2024-01-27T02:28:21;6.51;72.38
64882;HTU21D;51375;44.836;38.672;2024-01-27T02:30:49;6.48;72.45
64882;HTU21D;51375;44.836;38.672;2024-01-27T02:33:15;6.49;72.49
64882;HTU21D;51375;44.836;38.672;2024-01-27T02:35:41;6.49;72.55
64882;HTU21D;51375;44.836;38.672;2024-01-27T02:38:08;6.53;72.56
64882;HTU21D;51375;44.836;38.672;2024-01-27T02:40:34;6.55;72.56
64882;HTU21D;51375;44.836;38.672;2024-01-27T02:43:00;6.58;72.57
64882;HTU21D;51375;44.836;38.672;2024-01-27T02:45:25;6.60;72.54
64882;HTU21D;51375;44.836;38.672;2024-01-27T02:47:51;6.59;72.54
64882;HTU21D;51375;44.836;38.672;2024-01-27T02:50:18;6.55;72.55
64882;HTU21D;51375;44.836;38.672;2024-01-27T02:52:44;6.52;72.78
64882;HTU21D;51375;44.836;38.672;2024-01-27T02:55:10;6.51;72.79
64882;HTU21D;51375;44.836;38.672;2024-01-27T02:57:36;6.53;72.77
64882;HTU21D;51375;44.836;38.672;2024-01-27T03:00:03;6.55;72.64
64882;HTU21D;51375;44.836;38.672;2024-01-27T03:02:30;6.57;72.46
64882;HTU21D;51375;44.836;38.672;2024-01-27T03:04:56;6.50;72.37
64882;HTU21D;51375;44.836;38.672;2024-01-27T03:07:22;6.35;72.63
64882;HTU21D;51375;44.836;38.672;2024-01-27T03:09:48;6.28;72.58
64882;HTU21D;51375;44.836;38.672;2024-01-27T03:12:14;6.27;72.63
64882;HTU21D;51375;44.836;38.672;2024-01-27T03:14:41;6.29;72.51
64882;HTU21D;51375;44.836;38.672;2024-01-27T03:17:07;6.30;72.37
64882;HTU21D;51375;44.836;38.672;2024-01-27T03:19:33;6.33;72.28
64882;HTU21D;51375;44.836;38.672;2024-01-27T03:21:59;6.33;72.13
64882;HTU21D;51375;44.836;38.672;2024-01-27T03:24:25;6.33;72.14
64882;HTU21D;51375;44.836;38.672;2024-01-27T03:26:51;6.33;72.21
64882;HTU21D;51375;44.836;38.672;2024-01-27T03:29:17;6.37;72.18
64882;HTU21D;51375;44.836;38.672;2024-01-27T03:31:43;6.40;72.22
64882;HTU21D;51375;44.836;38.672;2024-01-27T03:34:09;6.45;72.02
64882;HTU21D;51375;44.836;38.672;2024-01-27T03:36:34;6.49;71.79
64882;HTU21D;51375;44.836;38.672;2024-01-27T03:39:00;6.54;71.84
64882;HTU21D;51375;44.836;38.672;2024-01-27T03:41:26;6.57;71.74
64882;HTU21D;51375;44.836;38.672;2024-01-27T03:43:52;6.58;71.71
64882;HTU21D;51375;44.836;38.672;2024-01-27T03:46:18;6.58;71.54
64882;HTU21D;51375;44.836;38.672;2024-01-27T03:48:44;6.55;71.62
64882;HTU21D;51375;44.836;38.672;2024-01-27T03:51:10;6.54;71.64
64882;HTU21D;51375;44.836;38.672;2024-01-27T03:53:36;6.51;71.80
64882;HTU21D;51375;44.836;38.672;2024-01-27T03:56:02;6.54;71.84
64882;HTU21D;51375;44.836;38.672;2024-01-27T03:58:30;6.55;71.87
64882;HTU21D;51375;44.836;38.672;2024-01-27T04:00:56;6.58;71.85
64882;HTU21D;51375;44.836;38.672;2024-01-27T04:03:23;6.60;71.86
64882;HTU21D;51375;44.836;38.672;2024-01-27T04:05:49;6.64;71.84
64882;HTU21D;51375;44.836;38.672;2024-01-27T04:08:15;6.65;71.77
64882;HTU21D;51375;44.836;38.672;2024-01-27T04:10:40;6.67;71.87
64882;HTU21D;51375;44.836;38.672;2024-01-27T04:13:06;6.67;71.83
64882;HTU21D;51375;44.836;38.672;2024-01-27T04:15:35;6.67;71.90
64882;HTU21D;51375;44.836;38.672;2024-01-27T04:18:05;6.69;71.97
64882;HTU21D;51375;44.836;38.672;2024-01-27T04:20:33;6.72;72.03
64882;HTU21D;51375;44.836;38.672;2024-01-27T04:23:00;6.75;71.90
64882;HTU21D;51375;44.836;38.672;2024-01-27T04:25:26;6.72;71.96
64882;HTU21D;51375;44.836;38.672;2024-01-27T04:27:52;6.73;72.03
64882;HTU21D;51375;44.836;38.672;2024-01-27T04:30:19;6.75;71.97
64882;HTU21D;51375;44.836;38.672;2024-01-27T04:32:45;6.76;71.78
64882;HTU21D;51375;44.836;38.672;2024-01-27T04:35:11;6.79;71.74
64882;HTU21D;51375;44.836;38.672;2024-01-27T04:37:38;6.78;71.61
64882;HTU21D;51375;44.836;38.672;2024-01-27T04:40:07;6.76;71.50
64882;HTU21D;51375;44.836;38.672;2024-01-27T04:42:34;6.78;71.61
64882;HTU21D;51375;44.836;38.672;2024-01-27T04:45:00;6.79;71.55
64882;HTU21D;51375;44.836;38.672;2024-01-27T04:47:26;6.78;71.41
64882;HTU21D;51375;44.836;38.672;2024-01-27T04:49:53;6.74;71.50
64882;HTU21D;51375;44.836;38.672;2024-01-27T04:52:19;6.74;71.50
64882;HTU21D;51375;44.836;38.672;2024-01-27T04:54:45;6.75;71.42
64882;HTU21D;51375;44.836;38.672;2024-01-27T04:57:11;6.75;71.45
64882;HTU21D;51375;44.836;38.672;2024-01-27T04:59:37;6.75;71.46
64882;HTU21D;51375;44.836;38.672;2024-01-27T05:02:03;6.78;71.43
64882;HTU21D;51375;44.836;38.672;2024-01-27T05:04:29;6.81;71.38
64882;HTU21D;51375;44.836;38.672;2024-01-27T05:06:55;6.83;71.30
64882;HTU21D;51375;44.836;38.672;2024-01-27T05:09:21;6.84;71.19
64882;HTU21D;51375;44.836;38.672;2024-01-27T05:11:47;6.85;71.05
64882;HTU21D;51375;44.836;38.672;2024-01-27T05:14:14;6.83;70.97
64882;HTU21D;51375;44.836;38.672;2024-01-27T05:16:40;6.83;71.08
64882;HTU21D;51375;44.836;38.672;2024-01-27T05:19:06;6.75;71.12
64882;HTU21D;51375;44.836;38.672;2024-01-27T05:21:32;6.67;71.45
64882;HTU21D;51375;44.836;38.672;2024-01-27T05:23:58;6.65;71.62
64882;HTU21D;51375;44.836;38.672;2024-01-27T05:26:24;6.65;71.65
64882;HTU21D;51375;44.836;38.672;2024-01-27T05:28:50;6.68;71.64
64882;HTU21D;51375;44.836;38.672;2024-01-27T05:31:16;6.70;71.64
64882;HTU21D;51375;44.836;38.672;2024-01-27T05:33:42;6.78;71.59
64882;HTU21D;51375;44.836;38.672;2024-01-27T05:36:08;6.83;71.59
64882;HTU21D;51375;44.836;38.672;2024-01-27T05:38:34;6.86;71.56
64882;HTU21D;51375;44.836;38.672;2024-01-27T05:41:01;6.87;71.64
64882;HTU21D;51375;44.836;38.672;2024-01-27T05:43:27;6.94;71.64
64882;HTU21D;51375;44.836;38.672;2024-01-27T05:45:53;6.95;71.67
64882;HTU21D;51375;44.836;38.672;2024-01-27T05:48:19;6.98;71.65
64882;HTU21D;51375;44.836;38.672;2024-01-27T05:50:58;7.00;71.53
64882;HTU21D;51375;44.836;38.672;2024-01-27T05:53:24;7.04;71.51
64882;HTU21D;51375;44.836;38.672;2024-01-27T05:55:51;7.08;71.45
64882;HTU21D;51375;44.836;38.672;2024-01-27T05:58:18;7.11;71.51
64882;HTU21D;51375;44.836;38.672;2024-01-27T06:00:47;7.14;71.49
64882;HTU21D;51375;44.836;38.672;2024-01-27T06:03:13;7.18;71.43
64882;HTU21D;51375;44.836;38.672;2024-01-27T06:05:41;7.19;71.25
64882;HTU21D;51375;44.836;38.672;2024-01-27T06:08:08;7.25;71.16
64882;HTU21D;51375;44.836;38.672;2024-01-27T06:10:34;7.26;71.06
64882;HTU21D;51375;44.836;38.672;2024-01-27T06:13:03;7.25;71.06
64882;HTU21D;51375;44.836;38.672;2024-01-27T06:15:29;7.28;71.13
64882;HTU21D;51375;44.836;38.672;2024-01-27T06:17:55;7.31;71.15
64882;HTU21D;51375;44.836;38.672;2024-01-27T06:20:21;7.35;71.08
64882;HTU21D;51375;44.836;38.672;2024-01-27T06:22:47;7.40;71.03
64882;HTU21D;51375;44.836;38.672;2024-01-27T06:25:13;7.40;71.01
64882;HTU21D;51375;44.836;38.672;2024-01-27T06:27:39;7.39;71.06
64882;HTU21D;51375;44.836;38.672;2024-01-27T06:30:07;7.42;71.15
64882;HTU21D;51375;44.836;38.672;2024-01-27T06:32:33;7.46;71.26
64882;HTU21D;51375;44.836;38.672;2024-01-27T06:34:59;7.50;71.27
64882;HTU21D;51375;44.836;38.672;2024-01-27T06:37:25;7.49;71.35
64882;HTU21D;51375;44.836;38.672;2024-01-27T06:39:51;7.49;71.46
64882;HTU21D;51375;44.836;38.672;2024-01-27T06:42:17;7.54;71.57
64882;HTU21D;51375;44.836;38.672;2024-01-27T06:44:43;7.56;71.45
64882;HTU21D;51375;44.836;38.672;2024-01-27T06:47:09;7.55;71.58
64882;HTU21D;51375;44.836;38.672;2024-01-27T06:49:35;7.56;71.64
64882;HTU21D;51375;44.836;38.672;2024-01-27T06:52:01;7.56;71.74
64882;HTU21D;51375;44.836;38.672;2024-01-27T06:54:27;7.59;71.70
64882;HTU21D;51375;44.836;38.672;2024-01-27T06:56:52;7.57;71.90
64882;HTU21D;51375;44.836;38.672;2024-01-27T06:59:18;7.56;72.13
64882;HTU21D;51375;44.836;38.672;2024-01-27T07:01:48;7.59;72.37
64882;HTU21D;51375;44.836;38.672;2024-01-27T07:04:14;7.68;72.40
64882;HTU21D;51375;44.836;38.672;2024-01-27T07:06:41;7.73;72.27
64882;HTU21D;51375;44.836;38.672;2024-01-27T07:09:07;7.71;72.49
64882;HTU21D;51375;44.836;38.672;2024-01-27T07:11:33;7.65;72.77
64882;HTU21D;51375;44.836;38.672;2024-01-27T07:13:59;7.67;73.07
64882;HTU21D;51375;44.836;38.672;2024-01-27T07:16:25;7.68;73.19
64882;HTU21D;51375;44.836;38.672;2024-01-27T07:18:51;7.67;73.22
64882;HTU21D;51375;44.836;38.672;2024-01-27T07:21:17;7.71;73.39
64882;HTU21D;51375;44.836;38.672;2024-01-27T07:23:43;7.82;73.38
64882;HTU21D;51375;44.836;38.672;2024-01-27T07:26:10;7.93;73.25
64882;HTU21D;51375;44.836;38.672;2024-01-27T07:28:37;8.05;73.03
64882;HTU21D;51375;44.836;38.672;2024-01-27T07:31:04;8.13;72.93
64882;HTU21D;51375;44.836;38.672;2024-01-27T07:33:29;8.19;72.68
64882;HTU21D;51375;44.836;38.672;2024-01-27T07:35:56;8.16;72.45
64882;HTU21D;51375;44.836;38.672;2024-01-27T07:38:22;8.12;72.74
64882;HTU21D;51375;44.836;38.672;2024-01-27T07:40:48;8.13;72.67
64882;HTU21D;51375;44.836;38.672;2024-01-27T07:43:14;8.02;72.79
64882;HTU21D;51375;44.836;38.672;2024-01-27T07:45:40;7.96;73.07
64882;HTU21D;51375;44.836;38.672;2024-01-27T07:48:06;7.90;73.21
64882;HTU21D;51375;44.836;38.672;2024-01-27T07:50:33;7.87;73.31
64882;HTU21D;51375;44.836;38.672;2024-01-27T07:52:59;7.88;73.32
64882;HTU21D;51375;44.836;38.672;2024-01-27T07:55:25;7.81;73.30
64882;HTU21D;51375;44.836;38.672;2024-01-27T07:57:51;7.72;73.43
64882;HTU21D;51375;44.836;38.672;2024-01-27T08:00:17;7.65;73.60
64882;HTU21D;51375;44.836;38.672;2024-01-27T08:02:43;7.61;73.79
64882;HTU21D;51375;44.836;38.672;2024-01-27T08:05:09;7.63;73.92
64882;HTU21D;51375;44.836;38.672;2024-01-27T08:07:35;7.72;73.77
64882;HTU21D;51375;44.836;38.672;2024-01-27T08:10:01;7.75;73.66
64882;HTU21D;51375;44.836;38.672;2024-01-27T08:12:31;7.79;73.52
64882;HTU21D;51375;44.836;38.672;2024-01-27T08:14:57;7.82;73.47
64882;HTU21D;51375;44.836;38.672;2024-01-27T08:17:23;7.83;73.22
64882;HTU21D;51375;44.836;38.672;2024-01-27T08:19:50;7.68;73.28
64882;HTU21D;51375;44.836;38.672;2024-01-27T08:22:17;7.54;73.48
64882;HTU21D;51375;44.836;38.672;2024-01-27T08:24:42;7.50;73.78
64882;HTU21D;51375;44.836;38.672;2024-01-27T08:27:09;7.55;73.67
64882;HTU21D;51375;44.836;38.672;2024-01-27T08:29:35;7.59;73.46
64882;HTU21D;51375;44.836;38.672;2024-01-27T08:32:01;7.57;73.39
64882;HTU21D;51375;44.836;38.672;2024-01-27T08:34:28;7.57;73.37
64882;HTU21D;51375;44.836;38.672;2024-01-27T08:37:00;7.62;73.34
64882;HTU21D;51375;44.836;38.672;2024-01-27T08:39:26;7.64;73.16
64882;HTU21D;51375;44.836;38.672;2024-01-27T08:41:53;7.68;73.00
64882;HTU21D;51375;44.836;38.672;2024-01-27T08:44:25;7.68;73.07
64882;HTU21D;51375;44.836;38.672;2024-01-27T08:46:51;7.73;73.02
64882;HTU21D;51375;44.836;38.672;2024-01-27T08:49:17;7.73;72.91
64882;HTU21D;51375;44.836;38.672;2024-01-27T08:51:43;7.71;73.04
64882;HTU21D;51375;44.836;38.672;2024-01-27T08:54:09;7.71;73.03
64882;HTU21D;51375;44.836;38.672;2024-01-27T08:56:39;7.69;73.08
64882;HTU21D;51375;44.836;38.672;2024-01-27T08:59:05;7.64;73.23
64882;HTU21D;51375;44.836;38.672;2024-01-27T09:01:31;7.60;73.38
64882;HTU21D;51375;44.836;38.672;2024-01-27T09:03:58;7.61;73.57
64882;HTU21D;51375;44.836;38.672;2024-01-27T09:06:23;7.65;73.70
64882;HTU21D;51375;44.836;38.672;2024-01-27T09:08:49;7.69;73.53
64882;HTU21D;51375;44.836;38.672;2024-01-27T09:11:15;7.73;73.55
64882;HTU21D;51375;44.836;38.672;2024-01-27T09:13:41;7.75;73.56
64882;HTU21D;51375;44.836;38.672;2024-01-27T09:16:07;7.72;73.66
64882;HTU21D;51375;44.836;38.672;2024-01-27T09:18:38;7.73;73.81
64882;HTU21D;51375;44.836;38.672;2024-01-27T09:21:03;7.82;73.79
64882;HTU21D;51375;44.836;38.672;2024-01-27T09:23:29;7.90;73.60
64882;HTU21D;51375;44.836;38.672;2024-01-27T09:25:55;7.98;73.44
64882;HTU21D;51375;44.836;38.672;2024-01-27T09:28:21;8.02;73.35
64882;HTU21D;51375;44.836;38.672;2024-01-27T09:30:47;8.01;73.23
64882;HTU21D;51375;44.836;38.672;2024-01-27T09:33:13;7.97;73.22
64882;HTU21D;51375;44.836;38.672;2024-01-27T09:35:39;7.89;73.19
64882;HTU21D;51375;44.836;38.672;2024-01-27T09:38:05;7.75;73.44
64882;HTU21D;51375;44.836;38.672;2024-01-27T09:40:35;7.71;73.73
64882;HTU21D;51375;44.836;38.672;2024-01-27T09:43:00;7.81;73.85
64882;HTU21D;51375;44.836;38.672;2024-01-27T09:45:27;7.93;73.62
64882;HTU21D;51375;44.836;38.672;2024-01-27T09:47:55;8.08;73.41
64882;HTU21D;51375;44.836;38.672;2024-01-27T09:50:22;8.16;73.18
64882;HTU21D;51375;44.836;38.672;2024-01-27T09:52:48;8.26;73.09
64882;HTU21D;51375;44.836;38.672;2024-01-27T09:55:14;8.34;72.93
64882;HTU21D;51375;44.836;38.672;2024-01-27T09:57:40;8.42;72.72
64882;HTU21D;51375;44.836;38.672;2024-01-27T10:00:10;8.48;72.71
64882;HTU21D;51375;44.836;38.672;2024-01-27T10:02:42;8.50;72.64
64882;HTU21D;51375;44.836;38.672;2024-01-27T10:08:06;8.41;72.76
64882;HTU21D;51375;44.836;38.672;2024-01-27T10:10:32;8.39;72.91
64882;HTU21D;51375;44.836;38.672;2024-01-27T10:12:58;8.38;72.83
64882;HTU21D;51375;44.836;38.672;2024-01-27T10:15:26;8.31;72.80
64882;HTU21D;51375;44.836;38.672;2024-01-27T10:18:04;8.21;72.89
64882;HTU21D;51375;44.836;38.672;2024-01-27T10:20:31;8.15;73.03
64882;HTU21D;51375;44.836;38.672;2024-01-27T10:22:57;8.03;73.11
64882;HTU21D;51375;44.836;38.672;2024-01-27T10:25:23;7.90;73.31
64882;HTU21D;51375;44.836;38.672;2024-01-27T10:27:49;7.83;73.41
64882;HTU21D;51375;44.836;38.672;2024-01-27T10:30:16;7.77;73.56
64882;HTU21D;51375;44.836;38.672;2024-01-27T10:32:55;7.78;73.57
64882;HTU21D;51375;44.836;38.672;2024-01-27T10:35:22;7.89;73.44
64882;HTU21D;51375;44.836;38.672;2024-01-27T10:37:51;7.97;73.16
64882;HTU21D;51375;44.836;38.672;2024-01-27T10:40:18;8.05;73.04
64882;HTU21D;51375;44.836;38.672;2024-01-27T10:42:45;8.03;72.96
64882;HTU21D;51375;44.836;38.672;2024-01-27T10:45:12;8.03;72.98
64882;HTU21D;51375;44.836;38.672;2024-01-27T10:47:39;8.01;73.06
64882;HTU21D;51375;44.836;38.672;2024-01-27T10:50:08;7.99;72.99
64882;HTU21D;51375;44.836;38.672;2024-01-27T10:52:39;7.93;72.80
64882;HTU21D;51375;44.836;38.672;2024-01-27T10:55:07;7.85;72.96
64882;HTU21D;51375;44.836;38.672;2024-01-27T10:57:37;7.83;73.17
64882;HTU21D;51375;44.836;38.672;2024-01-27T11:00:04;7.87;73.08
64882;HTU21D;51375;44.836;38.672;2024-01-27T11:02:35;7.93;73.07
64882;HTU21D;51375;44.836;38.672;2024-01-27T11:05:05;8.01;72.79
64882;HTU21D;51375;44.836;38.672;2024-01-27T11:07:34;8.04;72.83
64882;HTU21D;51375;44.836;38.672;2024-01-27T11:10:01;8.01;72.70
64882;HTU21D;51375;44.836;38.672;2024-01-27T11:12:27;8.00;72.81
64882;HTU21D;51375;44.836;38.672;2024-01-27T11:14:53;7.97;72.77
64882;HTU21D;51375;44.836;38.672;2024-01-27T11:17:19;7.98;72.91
64882;HTU21D;51375;44.836;38.672;2024-01-27T11:19:46;7.92;72.76
64882;HTU21D;51375;44.836;38.672;2024-01-27T11:22:26;7.85;72.87
64882;HTU21D;51375;44.836;38.672;2024-01-27T11:25:05;7.85;73.10
64882;HTU21D;51375;44.836;38.672;2024-01-27T11:27:30;7.85;73.15
64882;HTU21D;51375;44.836;38.672;2024-01-27T11:29:57;7.90;73.21
64882;HTU21D;51375;44.836;38.672;2024-01-27T11:32:23;7.97;73.06
64882;HTU21D;51375;44.836;38.672;2024-01-27T11:34:50;7.96;72.93
64882;HTU21D;51375;44.836;38.672;2024-01-27T11:37:17;7.97;72.97
64882;HTU21D;51375;44.836;38.672;2024-01-27T11:39:45;7.86;73.06
64882;HTU21D;51375;44.836;38.672;2024-01-27T11:42:12;7.76;73.36
64882;HTU21D;51375;44.836;38.672;2024-01-27T11:44:39;7.71;73.49
64882;HTU21D;51375;44.836;38.672;2024-01-27T11:47:17;7.73;73.54
64882;HTU21D;51375;44.836;38.672;2024-01-27T11:49:51;7.79;73.42
64882;HTU21D;51375;44.836;38.672;2024-01-27T11:52:21;7.90;73.37
64882;HTU21D;51375;44.836;38.672;2024-01-27T11:54:58;8.01;73.15
64882;HTU21D;51375;44.836;38.672;2024-01-27T11:57:25;8.09;72.92
64882;HTU21D;51375;44.836;38.672;2024-01-27T11:59:51;8.13;72.69
64882;HTU21D;51375;44.836;38.672;2024-01-27T12:02:18;8.09;72.68
64882;HTU21D;51375;44.836;38.672;2024-01-27T12:04:44;8.06;72.80
64882;HTU21D;51375;44.836;38.672;2024-01-27T12:07:10;8.07;72.89
64882;HTU21D;51375;44.836;38.672;2024-01-27T12:09:37;8.14;72.87
64882;HTU21D;51375;44.836;38.672;2024-01-27T12:12:06;8.21;72.76
64882;HTU21D;51375;44.836;38.672;2024-01-27T12:14:50;8.28;72.48
64882;HTU21D;51375;44.836;38.672;2024-01-27T12:17:17;8.31;72.32
64882;HTU21D;51375;44.836;38.672;2024-01-27T12:19:51;8.26;72.16
64882;HTU21D;51375;44.836;38.672;2024-01-27T12:22:28;8.20;72.36
64882;HTU21D;51375;44.836;38.672;2024-01-27T12:24:55;8.17;72.43
64882;HTU21D;51375;44.836;38.672;2024-01-27T12:27:24;8.13;72.40
64882;HTU21D;51375;44.836;38.672;2024-01-27T12:29:50;8.02;72.59
64882;HTU21D;51375;44.836;38.672;2024-01-27T12:32:17;7.94;72.74
64882;HTU21D;51375;44.836;38.672;2024-01-27T12:34:44;7.91;72.90
64882;HTU21D;51375;44.836;38.672;2024-01-27T12:37:15;7.88;72.95
64882;HTU21D;51375;44.836;38.672;2024-01-27T12:39:44;7.85;72.99
64882;HTU21D;51375;44.836;38.672;2024-01-27T12:42:11;7.84;73.16
64882;HTU21D;51375;44.836;38.672;2024-01-27T12:44:37;7.85;73.10
64882;HTU21D;51375;44.836;38.672;2024-01-27T12:47:05;7.79;73.11
64882;HTU21D;51375;44.836;38.672;2024-01-27T12:49:31;7.74;73.28
64882;HTU21D;51375;44.836;38.672;2024-01-27T12:51:57;7.73;73.38
64882;HTU21D;51375;44.836;38.672;2024-01-27T12:54:23;7.76;73.36
64882;HTU21D;51375;44.836;38.672;2024-01-27T12:56:49;7.75;73.35
64882;HTU21D;51375;44.836;38.672;2024-01-27T12:59:15;7.75;73.41
64882;HTU21D;51375;44.836;38.672;2024-01-27T13:01:41;7.77;73.35
64882;HTU21D;51375;44.836;38.672;2024-01-27T13:04:07;7.82;73.22
64882;HTU21D;51375;44.836;38.672;2024-01-27T13:06:34;7.85;73.06
64882;HTU21D;51375;44.836;38.672;2024-01-27T13:09:00;7.87;73.00
64882;HTU21D;51375;44.836;38.672;2024-01-27T13:11:26;7.93;72.88
64882;HTU21D;51375;44.836;38.672;2024-01-27T13:13:52;7.90;72.80
64882;HTU21D;51375;44.836;38.672;2024-01-27T13:16:18;7.83;72.81
64882;HTU21D;51375;44.836;38.672;2024-01-27T13:18:44;7.76;73.02
64882;HTU21D;51375;44.836;38.672;2024-01-27T13:21:11;7.76;73.12
64882;HTU21D;51375;44.836;38.672;2024-01-27T13:23:37;7.78;73.12
64882;HTU21D;51375;44.836;38.672;2024-01-27T13:26:04;7.70;73.22
64882;HTU21D;51375;44.836;38.672;2024-01-27T13:28:29;7.71;73.23
64882;HTU21D;51375;44.836;38.672;2024-01-27T13:30:55;7.72;73.19
64882;HTU21D;51375;44.836;38.672;2024-01-27T13:33:21;7.76;73.15
64882;HTU21D;51375;44.836;38.672;2024-01-27T13:35:47;7.82;72.92
64882;HTU21D;51375;44.836;38.672;2024-01-27T13:38:14;7.82;72.83
64882;HTU21D;51375;44.836;38.672;2024-01-27T13:40:41;7.78;72.86
64882;HTU21D;51375;44.836;38.672;2024-01-27T13:43:10;7.76;72.96
64882;HTU21D;51375;44.836;38.672;2024-01-27T13:45:36;7.82;72.83
64882;HTU21D;51375;44.836;38.672;2024-01-27T13:48:02;7.85;72.74
64882;HTU21D;51375;44.836;38.672;2024-01-27T13:50:28;7.91;72.62
64882;HTU21D;51375;44.836;38.672;2024-01-27T13:52:57;7.94;72.51
64882;HTU21D;51375;44.836;38.672;2024-01-27T13:55:24;7.99;72.48
64882;HTU21D;51375;44.836;38.672;2024-01-27T13:57:50;8.05;72.38
64882;HTU21D;51375;44.836;38.672;2024-01-27T14:00:17;8.06;72.29
64882;HTU21D;51375;44.836;38.672;2024-01-27T14:02:43;8.06;72.35
64882;HTU21D;51375;44.836;38.672;2024-01-27T14:05:09;8.06;72.34
64882;HTU21D;51375;44.836;38.672;2024-01-27T14:07:36;8.05;72.34
64882;HTU21D;51375;44.836;38.672;2024-01-27T14:10:02;8.02;72.38
64882;HTU21D;51375;44.836;38.672;2024-01-27T14:12:28;8.04;72.32
64882;HTU21D;51375;44.836;38.672;2024-01-27T14:15:02;8.03;72.08
64882;HTU21D;51375;44.836;38.672;2024-01-27T14:17:29;7.98;72.22
64882;HTU21D;51375;44.836;38.672;2024-01-27T14:19:55;7.89;72.36
64882;HTU21D;51375;44.836;38.672;2024-01-27T14:22:21;7.86;72.64
64882;HTU21D;51375;44.836;38.672;2024-01-27T14:24:47;7.88;72.64
64882;HTU21D;51375;44.836;38.672;2024-01-27T14:27:13;7.88;72.58
64882;HTU21D;51375;44.836;38.672;2024-01-27T14:29:40;7.91;72.58
64882;HTU21D;51375;44.836;38.672;2024-01-27T14:32:06;7.97;72.38
64882;HTU21D;51375;44.836;38.672;2024-01-27T14:34:32;8.01;72.37
64882;HTU21D;51375;44.836;38.672;2024-01-27T14:36:58;8.05;72.31
64882;HTU21D;51375;44.836;38.672;2024-01-27T14:39:27;8.09;72.25
64882;HTU21D;51375;44.836;38.672;2024-01-27T14:41:53;8.12;72.12
64882;HTU21D;51375;44.836;38.672;2024-01-27T14:44:20;8.11;72.10
64882;HTU21D;51375;44.836;38.672;2024-01-27T14:46:46;8.07;72.18
64882;HTU21D;51375;44.836;38.672;2024-01-27T14:49:12;8.06;72.17
64882;HTU21D;51375;44.836;38.672;2024-01-27T14:51:38;8.08;72.15
64882;HTU21D;51375;44.836;38.672;2024-01-27T14:54:04;8.08;72.18
64882;HTU21D;51375;44.836;38.672;2024-01-27T14:56:30;8.09;72.23
64882;HTU21D;51375;44.836;38.672;2024-01-27T14:58:58;8.12;72.24
64882;HTU21D;51375;44.836;38.672;2024-01-27T15:01:24;8.13;72.16
64882;HTU21D;51375;44.836;38.672;2024-01-27T15:03:50;8.15;72.21
64882;HTU21D;51375;44.836;38.672;2024-01-27T15:06:16;8.16;72.06
64882;HTU21D;51375;44.836;38.672;2024-01-27T15:08:43;8.15;72.05
64882;HTU21D;51375;44.836;38.672;2024-01-27T15:11:11;8.15;72.09
64882;HTU21D;51375;44.836;38.672;2024-01-27T15:13:37;8.14;72.09
64882;HTU21D;51375;44.836;38.672;2024-01-27T15:16:03;8.15;72.16